Graham, TX (76450)

5:59 AM CDT on May 28, 2015 (GMT -0500)
Graham | | Change Station
CLOSE
Current Station
Airport
Location: Graham,
Elevation: 1122 ft
Nearby Weather Stations

Elev 1122 ft 33.11 °N, 98.56 °W | Updated 24 minutes ago

Mostly Cloudy
Mostly Cloudy
71 °F
Feels Like 71 °F
N
4
Wind Variable Wind from NW

Today
High -- | Low -- °F
--% Chance of Precip.
Yesterday
High -- | Low -- °F
Precip. -- in
6:28 AM 8:35 PM
Waxing Gibbous, 75% visible
Pressure 30.04 in
Visibility 7.0 miles
Clouds Mostly Cloudy 1400 ft
Mostly Cloudy 7500 ft
Dew Point 71 °F
Humidity 99%
Rainfall 0.00 in
Snow Depth Not available.
UV 0 out of 12
Pollen 4.70 out of 12
Air Quality Not available.
Flu Activity Sporadic
METAR KRPH 281035Z AUTO 31003KT 7SM BKN014 BKN075 22/22 A3004 RMK AO2 T02170216

More Conditions Fewer Conditions

Pressure 30.04 in
Visibility 7.0 miles
Clouds Mostly Cloudy 1400 ft
Mostly Cloudy 7500 ft
Dew Point 71 °F
Humidity 99%
Rainfall 0.00 in
Snow Depth Not available.
UV 0 out of 12
Pollen 4.70 out of 12
Air Quality Not available.
Flu Activity Sporadic
METAR KRPH 281035Z AUTO 31003KT 7SM BKN014 BKN075 22/22 A3004 RMK AO2 T02170216

More Conditions Fewer Conditions

Nowcast | as of 4:33 am CDT on May 28, 2015

A line of thunderstorms is moving southeast into North Texas. The activity will reach Graham and Bowie around 6 am. This activity is not expected to be severe...but the storms will contain frequent lightning and heavy rain. Under the heavier downpours...rainfall amounts may exceed 1/2 inch. A few showers will occur in advance of the line...with rainfall amounts generally under 1/4 inch. Otherwise...mild but humid conditions will prevail through sunrise.

×

10-Day Weather Forecast

Almanac

Astronomy

May. 28, 2015 Rise Set
Actual Time
Civil Twilight
Nautical Twilight
Astronomical Twilight
Moon
Length of Visible Light
Length of Day
Tomorrow will be .
, % of the Moon is Illuminated

Today's Extremes

State Highs State Lows

Community

WunderPhotos

Upload Photos

1,824,946 photos uploaded!

WunderBlogs® & News

Nearby

Air Quality

  Air Quality AQ Index Pollutant
Not available.

Snow Depth

Station Depth Elevation

Earthquake Activity

City Distance Mag. Time & Date
Minimum magnitude displayed is 2.5.

Coastal Water Temperatures

Place Temperature

Stations

Nearby Weather Stations

Station Location Temp. Windchill Dew Point Humidity Wind Precip. Elev Updated Type